Current Weather

El Arish Intl

El Arish Intl, Egypt (HEAR)

Report from: Friday, February 3, 2023 4:00 PM EET
Current time: Sunday, February 5, 2023 5:41 AM EET

Nearby weather
Weather history
Weather forecast

Temperature38.0°C (100.4°F)
Heat index43.4°C (110.1°F)
Dew point22.0°C (71.6°F)
Winds 19 kts (9.8 m/s, 21.9 mph) North (360°)
Visibility3.7 mi. (6 km)
Altimeter29.91 in.Hg (1013 mB)
Relative humidity40 %
Density altitude2,958 ft. (901 m)
Remarks No significant changes expected in the next two hours
Flight conditions Marginal Visual Meteorological Conditions
Raw dataHEAR 031400Z 36019KT 6000 NSC 38/22 Q1013 NOSIG
An unhandled exception has occurred. See browser dev tools for details. Reload 🗙